Time;durP1;ratioP1;P1;durP2;ratioP2;P2;SDS_P1;SDS_P2;PMS_P1;PMS_P2;Temp;Humidity;BMP_temperature;BMP_pressure;BME280_temperature;BME280_humidity;BME280_pressure;Samples;Min_cycle;Max_cycle;Signal;HPM_P1;HPM_P2
2023/02/21 02:16:10;;;;;;;5.70;3.60;;;;;;;20.82;33.97;97735.05;108211;1253;61545;-65
2023/02/21 02:19:10;;;;;;;5.60;3.80;;;;;;;20.21;34.50;97730.89;108036;1255;72515;-65
2023/02/21 02:22:02;;;;;;;8.40;4.90;;;;;;;20.13;34.70;97729.09;108296;1251;71566;-64
2023/02/21 02:24:49;;;;;;;;;;;;;;;19.91;35.11;97727.75;107986;1255;73000;-65
2023/02/21 02:27:42;;;;;;;8.40;4.70;;;;;;;19.85;35.36;97728.44;108315;1252;61300;-65
2023/02/21 02:30:17;;;;;;;12.50;5.70;;;;;;;19.81;35.38;97729.71;108325;1250;60357;-65
2023/02/21 02:33:03;;;;;;;8.30;4.90;;;;;;;19.65;35.65;97729.56;108357;1250;73207;-62
2023/02/21 02:35:48;;;;;;;7.60;4.50;;;;;;;20.16;35.18;97730.51;108241;1250;71346;-65
2023/02/21 02:38:25;;;;;;;12.00;5.80;;;;;;;20.40;34.41;97732.61;108352;1250;73822;-67
2023/02/21 02:41:19;;;;;;;10.20;3.90;;;;;;;20.55;34.05;97736.75;108213;1250;60450;-66
2023/02/21 02:44:31;;;;;;;7.90;4.10;;;;;;;20.00;34.71;97742.52;108272;1251;61790;-65
2023/02/21 02:47:02;;;;;;;7.60;3.80;;;;;;;20.26;34.15;97743.68;108308;1250;73062;-66
2023/02/21 02:49:35;;;;;;;10.90;4.00;;;;;;;20.24;33.95;97755.16;108388;1250;71555;-66
2023/02/21 02:52:05;;;;;;;10.00;3.70;;;;;;;20.08;34.34;97753.09;108270;1254;72026;-64
2023/02/21 02:54:34;;;;;;;10.40;4.60;;;;;;;20.55;33.58;97744.68;108292;1250;62088;-65
2023/02/21 02:57:09;;;;;;;11.10;3.70;;;;;;;20.56;33.41;97751.48;108267;1250;61897;-65
2023/02/21 02:59:40;;;;;;;12.70;4.10;;;;;;;20.32;33.54;97754.04;108274;1254;74748;-66
2023/02/21 03:02:28;;;;;;;9.10;3.20;;;;;;;19.67;34.33;97756.17;108225;1253;70616;-66
2023/02/21 03:05:48;;;;;;;10.20;3.60;;;;;;;19.85;34.29;97761.31;108419;1251;73616;-65
2023/02/21 03:08:21;;;;;;;6.90;3.10;;;;;;;18.98;35.32;97762.02;107934;1252;62320;-66
2023/02/21 03:10:54;;;;;;;13.80;2.80;;;;;;;18.74;35.75;97762.60;108284;1253;60494;-67
2023/02/21 03:13:43;;;;;;;13.40;3.00;;;;;;;18.70;35.73;97766.36;108213;1251;74368;-66
2023/02/21 03:16:17;;;;;;;8.60;2.70;;;;;;;18.93;35.54;97756.05;108340;1253;71550;-66
2023/02/21 03:18:48;;;;;;;10.00;2.80;;;;;;;18.73;35.75;97762.15;108223;1251;73682;-66
2023/02/21 03:21:23;;;;;;;13.20;3.20;;;;;;;18.91;35.44;97761.98;108209;1251;60597;-65
2023/02/21 03:23:53;;;;;;;10.10;2.90;;;;;;;19.00;35.34;97761.80;108161;1257;60592;-66
2023/02/21 03:26:22;;;;;;;8.20;2.80;;;;;;;18.70;35.74;97765.63;108315;1251;73547;-65
2023/02/21 03:28:54;;;;;;;9.10;2.80;;;;;;;19.13;35.08;97764.48;108207;1250;71384;-66
2023/02/21 03:31:25;;;;;;;15.00;3.20;;;;;;;18.88;35.48;97771.48;108191;1253;73510;-65
2023/02/21 03:33:55;;;;;;;10.60;2.90;;;;;;;18.72;35.58;97774.26;108367;1250;60954;-66
2023/02/21 03:36:24;;;;;;;10.60;2.70;;;;;;;18.92;35.33;97778.02;108410;1250;61330;-65
2023/02/21 03:38:53;;;;;;;8.70;2.60;;;;;;;18.80;35.37;97779.49;108109;1250;74773;-64
2023/02/21 03:41:21;;;;;;;10.30;2.50;;;;;;;18.94;34.97;97775.46;108340;1250;71328;-64
2023/02/21 03:43:49;;;;;;;9.40;2.40;;;;;;;19.22;34.62;97776.86;108199;1250;73888;-65
2023/02/21 03:46:18;;;;;;;12.10;2.70;;;;;;;19.45;34.09;97777.74;108209;1250;61179;-65
2023/02/21 03:48:47;;;;;;;8.90;2.70;;;;;;;19.33;34.05;97777.10;108164;1250;60341;-66
2023/02/21 03:51:22;;;;;;;9.60;2.60;;;;;;;19.18;34.30;97774.42;108196;1250;74859;-65
2023/02/21 03:53:50;;;;;;;13.70;2.90;;;;;;;19.14;34.13;97780.04;108302;1250;70686;-65
2023/02/21 03:56:20;;;;;;;7.80;2.70;;;;;;;19.06;34.30;97781.77;108175;1250;73897;-66
2023/02/21 03:59:02;;;;;;;11.00;2.70;;;;;;;19.21;33.96;97780.42;108200;1250;62250;-65
2023/02/21 04:01:30;;;;;;;9.80;2.60;;;;;;;19.18;33.95;97781.02;108360;1250;61226;-66
2023/02/21 04:04:00;;;;;;;9.90;2.50;;;;;;;19.16;34.05;97774.16;108275;1250;73218;-65
2023/02/21 04:06:28;;;;;;;13.00;2.80;;;;;;;19.13;34.08;97782.51;108320;1250;71602;-65
2023/02/21 04:08:58;;;;;;;12.80;3.10;;;;;;;19.18;33.68;97777.73;108322;1250;71099;-64
2023/02/21 04:11:26;;;;;;;9.30;2.50;;;;;;;19.36;33.59;97779.89;108206;1250;62149;-65
2023/02/21 04:13:55;;;;;;;11.30;2.60;;;;;;;19.60;33.31;97775.30;108295;1251;60502;-66
2023/02/21 04:16:23;;;;;;;12.30;2.60;;;;;;;19.87;33.06;97775.20;108213;1250;72898;-64
2023/02/21 04:18:53;;;;;;;10.30;2.70;;;;;;;19.58;33.08;97772.68;108338;1254;71605;-65
2023/02/21 04:21:24;;;;;;;11.60;2.30;;;;;;;19.36;33.44;97772.13;108259;1250;73409;-66
2023/02/21 04:23:54;;;;;;;10.50;2.50;;;;;;;19.46;33.56;97770.88;108207;1251;62178;-64
2023/02/21 04:26:28;;;;;;;8.70;2.50;;;;;;;19.37;33.53;97768.26;108345;1250;61155;-63
2023/02/21 04:28:57;;;;;;;14.10;3.40;;;;;;;19.56;33.33;97773.27;108375;1250;74004;-65
2023/02/21 04:31:25;;;;;;;10.50;2.90;;;;;;;19.50;33.37;97774.16;108295;1250;70580;-65
2023/02/21 04:33:54;;;;;;;10.60;2.70;;;;;;;19.30;33.41;97769.96;108289;1250;73436;-65
2023/02/21 04:36:38;;;;;;;12.50;2.40;;;;;;;19.66;32.99;97772.73;108129;1251;62015;-66
2023/02/21 04:39:08;;;;;;;7.50;2.70;;;;;;;19.42;33.14;97780.90;108179;1251;61804;-66
2023/02/21 04:41:38;;;;;;;12.00;2.40;;;;;;;19.71;32.68;97779.33;108206;1256;74059;-66
2023/02/21 04:44:06;;;;;;;11.70;2.30;;;;;;;19.24;33.46;97782.75;108221;1250;69951;-65
2023/02/21 04:46:35;;;;;;;11.40;3.40;;;;;;;19.62;32.99;97783.62;108224;1250;71807;-65
2023/02/21 04:49:03;;;;;;;15.00;2.80;;;;;;;19.78;32.75;97782.25;108189;1250;62032;-65
2023/02/21 04:51:32;;;;;;;8.40;2.50;;;;;;;19.51;32.99;97781.30;108193;1250;61285;-63
2023/02/21 04:54:00;;;;;;;15.00;3.00;;;;;;;19.54;32.89;97783.46;108216;1250;74814;-66
2023/02/21 04:56:29;;;;;;;8.10;2.60;;;;;;;19.68;32.75;97786.45;108175;1250;71213;-67
2023/02/21 04:59:00;;;;;;;10.90;2.60;;;;;;;19.64;32.89;97787.95;108204;1251;71662;-67
2023/02/21 05:01:29;;;;;;;13.00;2.90;;;;;;;19.65;32.71;97794.16;108215;1251;62140;-64
2023/02/21 05:03:59;;;;;;;9.80;2.80;;;;;;;19.43;32.99;97802.51;108217;1250;60492;-66
2023/02/21 05:06:28;;;;;;;8.80;2.50;;;;;;;19.53;32.94;97798.20;108178;1250;74779;-66
2023/02/21 05:08:57;;;;;;;10.40;2.50;;;;;;;19.60;33.03;97801.89;108280;1250;71354;-65
2023/02/21 05:11:25;;;;;;;10.50;2.80;;;;;;;18.96;34.18;97805.44;108215;1250;72260;-66
2023/02/21 05:13:54;;;;;;;8.90;2.40;;;;;;;19.15;33.84;97803.48;108079;1250;62066;-65
2023/02/21 05:16:22;;;;;;;8.90;2.50;;;;;;;19.18;33.93;97804.31;108197;1250;60425;-67
2023/02/21 05:18:51;;;;;;;12.50;3.30;;;;;;;19.50;33.53;97801.55;108275;1250;74497;-67
2023/02/21 05:21:19;;;;;;;14.10;3.20;;;;;;;19.63;33.20;97796.88;108177;1250;69507;-66
2023/02/21 05:23:57;;;;;;;17.00;3.00;;;;;;;19.73;33.02;97802.21;108200;1250;73901;-67
2023/02/21 05:26:28;;;;;;;12.10;2.90;;;;;;;19.98;32.68;97801.58;108169;1251;62177;-67
2023/02/21 05:28:56;;;;;;;9.60;2.80;;;;;;;20.45;31.81;97802.24;108302;1254;61586;-66
2023/02/21 05:31:25;;;;;;;14.60;3.10;;;;;;;20.47;31.84;97795.48;108363;1251;74817;-66
2023/02/21 05:33:53;;;;;;;9.30;2.70;;;;;;;20.63;31.46;97798.55;108231;1252;71210;-67
2023/02/21 05:36:24;;;;;;;8.00;2.20;;;;;;;20.59;31.46;97798.66;108291;1251;73744;-67
2023/02/21 05:38:53;;;;;;;12.10;2.70;;;;;;;20.36;31.62;97795.60;108244;1252;62370;-67
2023/02/21 05:41:21;;;;;;;11.80;2.70;;;;;;;20.14;31.78;97797.42;108347;1254;61278;-66
2023/02/21 05:43:50;;;;;;;13.50;2.60;;;;;;;20.00;32.15;97798.69;108228;1251;73564;-66
2023/02/21 05:46:28;;;;;;;13.60;2.60;;;;;;;20.19;31.80;97802.75;108349;1251;71402;-67
2023/02/21 05:48:58;;;;;;;12.40;2.90;;;;;;;20.19;31.67;97808.65;108258;1252;72857;-67
2023/02/21 05:51:26;;;;;;;13.30;2.70;;;;;;;20.07;31.74;97806.00;108249;1251;60276;-66
2023/02/21 05:53:55;;;;;;;11.70;2.50;;;;;;;20.19;31.45;97804.15;108343;1251;61559;-67
2023/02/21 05:56:23;;;;;;;13.80;2.50;;;;;;;20.26;31.24;97804.55;108342;1253;73954;-66
2023/02/21 05:58:51;;;;;;;10.00;2.40;;;;;;;20.78;30.62;97801.30;108313;1251;69689;-66
2023/02/21 06:01:19;;;;;;;10.30;2.60;;;;;;;21.03;30.63;97802.02;108253;1255;73082;-65
2023/02/21 06:03:47;;;;;;;16.30;2.80;;;;;;;21.31;30.55;97802.48;108292;1251;62271;-67
2023/02/21 06:06:16;;;;;;;10.40;2.80;;;;;;;21.84;30.22;97807.08;108286;1252;61014;-67
2023/02/21 06:08:45;;;;;;;14.30;2.80;;;;;;;22.34;29.44;97809.22;108333;1251;74885;-66
2023/02/21 06:11:15;;;;;;;7.00;2.40;;;;;;;23.05;28.84;97810.80;108288;1251;69434;-67
2023/02/21 06:13:43;;;;;;;12.10;2.30;;;;;;;23.59;27.95;97814.54;108233;1254;72931;-67
2023/02/21 06:16:12;;;;;;;8.20;2.40;;;;;;;24.28;27.46;97813.21;108289;1251;61366;-68
2023/02/21 06:18:40;;;;;;;9.60;2.50;;;;;;;24.88;26.50;97815.94;108265;1251;61094;-67
2023/02/21 06:21:09;;;;;;;7.70;1.80;;;;;;;25.18;26.15;97814.36;108302;1253;72806;-68
2023/02/21 06:23:38;;;;;;;9.30;2.30;;;;;;;25.57;25.71;97816.44;108254;1253;71561;-66
2023/02/21 06:26:15;;;;;;;13.20;2.60;;;;;;;25.99;25.22;97816.71;108302;1252;73846;-66
2023/02/21 06:28:44;;;;;;;8.90;2.20;;;;;;;26.65;25.00;97824.46;108295;1250;61098;-67
2023/02/21 06:31:12;;;;;;;8.70;2.60;;;;;;;27.18;24.49;97826.63;108194;1250;59093;-65
2023/02/21 06:33:41;;;;;;;9.50;2.20;;;;;;;27.51;24.02;97831.65;108241;1251;73910;-67
2023/02/21 06:36:17;;;;;;;8.00;1.90;;;;;;;28.15;23.52;97829.38;108253;1250;71752;-67
2023/02/21 06:38:50;;;;;;;7.60;2.00;;;;;;;27.66;23.05;97829.91;108153;1254;72122;-65
2023/02/21 06:41:19;;;;;;;7.00;2.40;;;;;;;27.08;23.05;97833.27;108217;1255;60983;-64
2023/02/21 06:43:48;;;;;;;9.20;2.50;;;;;;;26.32;23.93;97836.66;108191;1250;60583;-68
2023/02/21 06:46:17;;;;;;;9.20;2.70;;;;;;;25.40;24.77;97846.11;108237;1250;75063;-68
2023/02/21 06:48:45;;;;;;;8.40;2.60;;;;;;;24.80;25.26;97842.25;108227;1255;70380;-69
2023/02/21 06:51:17;;;;;;;9.70;2.10;;;;;;;24.38;25.80;97847.23;108241;1256;71675;-67
2023/02/21 06:53:48;;;;;;;10.80;2.50;;;;;;;23.99;26.04;97848.13;108318;1250;60525;-67
2023/02/21 06:56:16;;;;;;;8.80;2.10;;;;;;;23.34;26.83;97853.11;108164;1251;61339;-66
2023/02/21 06:58:44;;;;;;;5.30;2.00;;;;;;;23.65;26.72;97846.34;108201;1251;75025;-67
2023/02/21 07:01:13;;;;;;;8.20;2.00;;;;;;;23.32;26.98;97846.30;108175;1250;70627;-65
2023/02/21 07:03:44;;;;;;;9.50;2.50;;;;;;;23.15;27.36;97838.71;108221;1255;73070;-67
2023/02/21 07:06:12;;;;;;;10.50;2.20;;;;;;;23.47;26.92;97832.11;108216;1254;62060;-66
2023/02/21 07:08:41;;;;;;;12.00;2.50;;;;;;;23.31;27.28;97832.77;108457;1251;59490;-66
2023/02/21 07:11:10;;;;;;;7.70;2.20;;;;;;;23.00;27.84;97832.36;108362;1254;74540;-65
2023/02/21 07:13:39;;;;;;;13.20;2.90;;;;;;;22.78;28.01;97819.91;108260;1251;72086;-64
2023/02/21 07:16:07;;;;;;;10.40;2.40;;;;;;;22.54;28.31;97823.53;108146;1256;73740;-66
2023/02/21 07:18:36;;;;;;;6.60;1.80;;;;;;;22.27;28.72;97826.59;108232;1255;62411;-67
2023/02/21 07:21:05;;;;;;;9.40;2.10;;;;;;;22.04;28.71;97826.44;108284;1251;60296;-67
2023/02/21 07:23:33;;;;;;;7.60;2.40;;;;;;;22.19;28.65;97819.84;108234;1256;75108;-67
2023/02/21 07:26:01;;;;;;;9.90;2.40;;;;;;;22.13;28.86;97818.36;108243;1251;71459;-69
2023/02/21 07:28:29;;;;;;;13.80;2.70;;;;;;;21.62;29.36;97819.15;108226;1255;75186;-67
2023/02/21 07:30:57;;;;;;;11.00;2.40;;;;;;;21.72;29.63;97820.03;108307;1256;62098;-67
2023/02/21 07:33:25;;;;;;;10.50;2.40;;;;;;;21.75;29.20;97813.84;108285;1256;61125;-67
2023/02/21 07:35:54;;;;;;;8.00;2.20;;;;;;;21.78;29.55;97820.59;108325;1251;73564;-68
2023/02/21 07:38:24;;;;;;;8.00;2.70;;;;;;;21.76;29.37;97821.15;108250;1255;71804;-66
2023/02/21 07:40:56;;;;;;;14.10;2.80;;;;;;;22.04;29.17;97821.70;108354;1256;71590;-65
2023/02/21 07:43:25;;;;;;;10.30;2.40;;;;;;;21.91;29.60;97819.92;108336;1251;61178;-67
2023/02/21 07:45:54;;;;;;;6.90;2.00;;;;;;;22.60;29.08;97815.09;108348;1251;60541;-67
2023/02/21 07:48:22;;;;;;;12.10;2.60;;;;;;;23.16;28.17;97815.33;108303;1251;74925;-67
2023/02/21 07:50:54;;;;;;;9.60;2.50;;;;;;;23.22;28.28;97814.96;108291;1254;69769;-66
2023/02/21 07:53:22;;;;;;;7.40;2.50;;;;;;;23.82;27.46;97813.75;108294;1256;72652;-67
2023/02/21 07:55:50;;;;;;;8.40;2.50;;;;;;;24.08;27.28;97816.10;108256;1251;60396;-65
2023/02/21 07:58:18;;;;;;;9.30;2.30;;;;;;;24.07;27.19;97814.52;108322;1251;61567;-65
2023/02/21 08:00:48;;;;;;;6.00;1.90;;;;;;;24.24;26.88;97824.08;108302;1251;75132;-66
2023/02/21 08:03:17;;;;;;;7.60;2.30;;;;;;;24.12;26.79;97826.29;108313;1255;71306;-67
2023/02/21 08:05:45;;;;;;;11.00;2.40;;;;;;;24.58;26.42;97828.08;108289;1255;72078;-65
2023/02/21 08:08:15;;;;;;;14.10;2.70;;;;;;;24.75;26.58;97822.08;108346;1251;60827;-66
2023/02/21 08:10:43;;;;;;;10.20;2.50;;;;;;;25.15;25.83;97817.34;108342;1256;61073;-67
2023/02/21 08:13:13;;;;;;;7.60;2.30;;;;;;;25.18;25.56;97815.69;108330;1251;72727;-66
2023/02/21 08:15:42;;;;;;;7.50;2.40;;;;;;;25.41;25.78;97821.55;108167;1251;69905;-66
2023/02/21 08:18:19;;;;;;;11.80;2.80;;;;;;;25.16;25.42;97817.73;108238;1251;73679;-67
2023/02/21 08:20:47;;;;;;;7.60;2.10;;;;;;;25.15;25.26;97816.64;108313;1251;61717;-66
2023/02/21 08:23:17;;;;;;;11.30;2.30;;;;;;;24.96;25.12;97818.42;108302;1251;60596;-66
2023/02/21 08:25:48;;;;;;;11.60;2.80;;;;;;;25.05;24.97;97819.89;108277;1254;75053;-65
2023/02/21 08:28:16;;;;;;;11.70;3.30;;;;;;;25.13;24.99;97823.02;108340;1251;71592;-66
2023/02/21 08:30:44;;;;;;;9.30;2.30;;;;;;;24.93;25.22;97823.98;108199;1250;71383;-63
2023/02/21 08:33:12;;;;;;;10.40;2.70;;;;;;;24.97;25.03;97823.79;108213;1251;60779;-66
2023/02/21 08:35:43;;;;;;;11.50;2.70;;;;;;;24.81;25.01;97818.23;108216;1251;61835;-66
2023/02/21 08:38:12;;;;;;;9.40;2.30;;;;;;;24.53;25.13;97820.34;108302;1254;75023;-65
2023/02/21 08:40:41;;;;;;;7.80;2.40;;;;;;;24.27;25.35;97815.16;108216;1251;72032;-67
2023/02/21 08:43:09;;;;;;;8.10;2.30;;;;;;;24.30;25.37;97814.38;108303;1255;73721;-67
2023/02/21 08:45:37;;;;;;;9.50;2.30;;;;;;;24.58;24.97;97809.92;108288;1251;60753;-66
2023/02/21 08:48:05;;;;;;;16.90;3.10;;;;;;;24.09;25.49;97816.52;108235;1250;60437;-67
2023/02/21 08:50:33;;;;;;;9.00;2.60;;;;;;;23.96;25.68;97811.66;108132;1251;73679;-67
2023/02/21 08:53:02;;;;;;;8.60;2.10;;;;;;;23.56;25.67;97816.72;108251;1254;71264;-67
2023/02/21 08:55:30;;;;;;;11.20;2.30;;;;;;;23.71;25.73;97814.06;108202;1251;73898;-65
2023/02/21 08:57:59;;;;;;;8.20;2.50;;;;;;;23.79;25.65;97811.27;108203;1256;59956;-65
2023/02/21 09:00:27;;;;;;;11.10;2.20;;;;;;;23.97;25.56;97809.02;108215;1251;59656;-68
2023/02/21 09:02:58;;;;;;;10.40;2.50;;;;;;;23.99;25.82;97807.48;108234;1252;74885;-67
2023/02/21 09:05:28;;;;;;;11.90;2.60;;;;;;;24.30;25.31;97807.31;108241;1252;70019;-67
2023/02/21 09:07:58;;;;;;;5.80;2.10;;;;;;;24.45;25.16;97807.71;108290;1256;73387;-68
2023/02/21 09:10:28;;;;;;;7.20;2.00;;;;;;;24.34;25.27;97812.08;108293;1251;61184;-67
2023/02/21 09:12:56;;;;;;;7.10;2.50;;;;;;;24.08;25.41;97810.02;108242;1250;61184;-67
2023/02/21 09:15:25;;;;;;;8.00;2.50;;;;;;;23.49;26.09;97812.37;108175;1251;73698;-66
2023/02/21 09:17:54;;;;;;;7.90;2.30;;;;;;;23.66;25.87;97814.20;108146;1250;71347;-67
2023/02/21 09:20:25;;;;;;;6.30;2.30;;;;;;;23.45;26.15;97813.29;108255;1254;73492;-67
2023/02/21 09:22:54;;;;;;;8.40;2.20;;;;;;;23.83;26.14;97807.54;108108;1250;61927;-67
2023/02/21 09:25:23;;;;;;;7.30;2.70;;;;;;;24.20;25.56;97804.04;108197;1251;61708;-67
2023/02/21 09:27:53;;;;;;;7.90;2.00;;;;;;;23.74;26.05;97810.23;108303;1256;74508;-67
2023/02/21 09:30:24;;;;;;;6.10;1.90;;;;;;;23.49;26.32;97806.67;108245;1254;71561;-68
2023/02/21 09:32:53;;;;;;;;;;;;;;;23.75;26.25;97806.73;108182;1252;72344;-69
2023/02/21 09:35:22;;;;;;;9.10;2.50;;;;;;;23.07;27.22;97808.40;108264;1251;62183;-68
2023/02/21 09:37:51;;;;;;;8.40;2.60;;;;;;;23.19;27.07;97810.41;108227;1250;61778;-68
2023/02/21 09:40:35;;;;;;;6.60;2.30;;;;;;;22.90;27.52;97809.46;108210;1251;73815;-66
2023/02/21 09:43:05;;;;;;;5.60;1.90;;;;;;;23.41;27.04;97805.33;108261;1251;69461;-68
2023/02/21 09:45:35;;;;;;;10.80;2.20;;;;;;;23.66;26.78;97801.08;108260;1251;70701;-68
2023/02/21 09:48:15;;;;;;;6.00;1.80;;;;;;;23.80;26.44;97801.64;108273;1251;61199;-66
2023/02/21 09:50:49;;;;;;;10.00;2.20;;;;;;;23.50;26.99;97808.86;108271;1251;60741;-67
2023/02/21 09:53:25;;;;;;;6.60;1.80;;;;;;;23.49;27.15;97809.85;108379;1251;74661;-66
2023/02/21 09:55:59;;;;;;;8.40;2.20;;;;;;;23.37;27.53;97813.64;108286;1254;70173;-66
2023/02/21 09:58:30;;;;;;;5.40;1.90;;;;;;;23.25;27.59;97813.30;108252;1253;72723;-67
2023/02/21 10:01:02;;;;;;;7.80;1.90;;;;;;;23.09;27.56;97815.02;108226;1251;62392;-67
2023/02/21 10:03:52;;;;;;;9.40;2.10;;;;;;;22.74;28.16;97817.81;108267;1251;62019;-68
2023/02/21 10:06:50;;;;;;;5.20;1.50;;;;;;;23.13;27.87;97817.54;108209;1251;73078;-66
2023/02/21 10:09:26;;;;;;;7.20;2.00;;;;;;;22.98;27.64;97817.77;108268;1251;70547;-67
2023/02/21 10:12:10;;;;;;;8.70;2.30;;;;;;;23.13;27.52;97818.73;108218;1251;72050;-67
2023/02/21 10:14:57;;;;;;;6.50;2.00;;;;;;;23.16;27.48;97819.77;108238;1251;62009;-69
2023/02/21 10:17:37;;;;;;;6.40;2.30;;;;;;;23.06;27.19;97815.98;108203;1251;60994;-67
2023/02/21 10:20:20;;;;;;;9.40;2.20;;;;;;;23.02;27.21;97827.13;108213;1251;74878;-66
2023/02/21 10:22:48;;;;;;;7.40;2.20;;;;;;;23.44;26.56;97825.52;108297;1251;70229;-66
2023/02/21 10:25:30;;;;;;;7.10;2.10;;;;;;;23.54;26.73;97831.50;108185;1251;73884;-70
2023/02/21 10:27:59;;;;;;;9.90;2.10;;;;;;;23.18;27.06;97827.08;108166;1250;62287;-67
2023/02/21 10:30:34;;;;;;;7.40;2.10;;;;;;;23.22;26.76;97825.67;108220;1251;61392;-68
2023/02/21 10:33:05;;;;;;;3.90;1.70;;;;;;;23.12;26.71;97823.30;108208;1254;73636;-67
2023/02/21 10:35:34;;;;;;;5.50;1.60;;;;;;;22.92;27.19;97829.55;108247;1251;71249;-67
2023/02/21 10:41:14;;;;;;;6.10;1.60;;;;;;;18.69;32.76;97843.55;104978;1293;600927;-67
2023/02/21 10:43:47;;;;;;;6.70;1.90;;;;;;;20.86;30.35;97855.08;107387;1263;62237;-67
2023/02/21 10:46:36;;;;;;;6.20;1.70;;;;;;;21.05;31.25;97877.36;107333;1265;61157;-66
2023/02/21 10:49:27;;;;;;;3.80;1.20;;;;;;;21.05;31.88;97870.91;107323;1266;73370;-68
2023/02/21 10:52:11;;;;;;;5.40;1.50;;;;;;;20.96;32.34;97868.83;107257;1266;71553;-65
2023/02/21 10:54:39;;;;;;;4.30;1.40;;;;;;;20.93;32.43;97869.83;107238;1263;211570;-67
2023/02/21 10:57:09;;;;;;;3.30;1.30;;;;;;;21.08;32.38;97871.89;107429;1266;62002;-67
2023/02/21 10:59:41;;;;;;;4.80;1.60;;;;;;;21.19;32.57;97866.29;107443;1263;61491;-67
2023/02/21 11:02:32;;;;;;;3.30;1.70;;;;;;;20.86;32.94;97870.06;107466;1263;73353;-67
2023/02/21 11:05:14;;;;;;;9.00;1.90;;;;;;;21.17;32.57;97869.38;108101;1253;70761;-66
2023/02/21 11:08:06;;;;;;;6.90;1.60;;;;;;;21.55;32.28;97867.25;108151;1253;72533;-68
2023/02/21 11:10:40;;;;;;;9.20;2.00;;;;;;;21.64;32.37;97863.54;108092;1253;61419;-66
2023/02/21 11:13:14;;;;;;;7.20;1.70;;;;;;;21.89;31.84;97864.86;108108;1253;59322;-67
2023/02/21 11:15:43;;;;;;;5.50;2.10;;;;;;;21.90;31.75;97860.93;108039;1253;73891;-68
2023/02/21 11:18:23;;;;;;;7.70;2.60;;;;;;;22.13;31.31;97864.45;108049;1254;70144;-67
2023/02/21 11:20:51;;;;;;;4.70;1.80;;;;;;;21.82;31.94;97869.02;107993;1253;73612;-65
2023/02/21 11:23:27;;;;;;;9.50;2.20;;;;;;;21.55;32.64;97861.67;108232;1250;60523;-65
2023/02/21 11:26:15;;;;;;;9.00;2.30;;;;;;;22.01;31.84;97869.41;108357;1254;60547;-68
2023/02/21 11:28:44;;;;;;;9.00;2.20;;;;;;;22.00;31.82;97873.92;108284;1251;74090;-66
2023/02/21 11:31:26;;;;;;;6.40;2.00;;;;;;;21.86;32.00;97872.30;108341;1251;71298;-67
2023/02/21 11:34:00;;;;;;;7.00;2.30;;;;;;;22.59;31.10;97875.36;108286;1251;72607;-68
2023/02/21 11:36:32;;;;;;;6.60;1.80;;;;;;;22.64;30.87;97877.00;108259;1251;62232;-67
2023/02/21 11:39:26;;;;;;;7.80;2.20;;;;;;;22.84;31.06;97876.77;108314;1251;61517;-68
2023/02/21 11:42:02;;;;;;;6.90;2.70;;;;;;;22.60;31.27;97876.85;108357;1251;70945;-66
2023/02/21 11:44:38;;;;;;;9.60;3.40;;;;;;;23.04;30.48;97876.23;108310;1251;70083;-68
2023/02/21 11:47:20;;;;;;;11.00;2.80;;;;;;;23.27;30.23;97881.97;108369;1251;71054;-65
2023/02/21 11:50:07;;;;;;;9.70;3.10;;;;;;;22.55;30.96;97886.75;108322;1251;59987;-67
2023/02/21 11:52:49;;;;;;;6.10;2.20;;;;;;;22.77;30.46;97883.05;108250;1251;60586;-67
2023/02/21 11:55:18;;;;;;;;;;;;;;;22.87;30.71;97882.30;108172;1251;72767;-67
2023/02/21 11:57:55;;;;;;;7.10;2.10;;;;;;;23.08;29.97;97880.69;108257;1251;71734;-66
2023/02/21 12:01:01;;;;;;;9.70;1.90;;;;;;;23.41;29.84;97882.35;108254;1251;73587;-68
2023/02/21 12:03:38;;;;;;;5.80;1.80;;;;;;;23.68;29.21;97884.10;108275;1253;61792;-68
2023/02/21 12:06:17;;;;;;;5.00;2.00;;;;;;;23.68;28.67;97886.46;108265;1251;60379;-67
2023/02/21 12:08:55;;;;;;;4.50;1.60;;;;;;;24.09;28.08;97883.27;108359;1251;74264;-67
2023/02/21 12:11:32;;;;;;;5.10;1.60;;;;;;;24.25;28.07;97886.55;108336;1251;69729;-66
2023/02/21 12:14:25;;;;;;;9.10;2.10;;;;;;;24.07;28.30;97892.08;108347;1251;73602;-66
2023/02/21 12:17:10;;;;;;;7.00;1.80;;;;;;;23.81;28.59;97899.76;108342;1251;62336;-68
2023/02/21 12:19:58;;;;;;;4.60;1.90;;;;;;;23.92;29.20;97907.84;108349;1251;61011;-68
2023/02/21 12:23:28;;;;;;;4.90;1.70;;;;;;;23.90;28.96;97906.61;108284;1251;74208;-67
2023/02/21 12:26:17;;;;;;;6.80;1.70;;;;;;;23.71;28.98;97904.31;108056;1251;71270;-67
2023/02/21 12:29:08;;;;;;;3.60;1.60;;;;;;;24.02;28.59;97905.79;108300;1253;72239;-67
2023/02/21 12:31:45;;;;;;;3.90;1.70;;;;;;;24.15;29.01;97911.36;108140;1253;59532;-67
2023/02/21 12:34:19;;;;;;;3.30;1.50;;;;;;;23.99;28.23;97902.46;108309;1252;60202;-66
2023/02/21 12:36:50;;;;;;;6.50;1.50;;;;;;;24.05;28.17;97910.58;108325;1252;71048;-67
2023/02/21 12:39:28;;;;;;;;;;;;;;;23.75;27.86;97906.69;108318;1252;70175;-67
2023/02/21 12:41:58;;;;;;;5.00;1.40;;;;;;;23.73;27.89;97910.73;108275;1253;73945;-68
2023/02/21 12:45:03;;;;;;;7.50;1.50;;;;;;;23.87;27.71;97906.42;108196;1252;62117;-66
2023/02/21 12:47:45;;;;;;;4.30;1.50;;;;;;;23.67;27.90;97909.77;108250;1253;60660;-68
2023/02/21 12:50:24;;;;;;;5.50;1.90;;;;;;;23.87;27.57;97914.35;108131;1252;73203;-66
2023/02/21 12:53:01;;;;;;;2.70;1.30;;;;;;;23.98;27.70;97925.32;108203;1252;71419;-67
2023/02/21 12:55:38;;;;;;;4.00;1.40;;;;;;;24.40;27.16;97916.18;108222;1253;73703;-66
2023/02/21 12:58:17;;;;;;;4.40;1.40;;;;;;;24.58;26.77;97916.67;108051;1252;62166;-67
2023/02/21 13:00:55;;;;;;;5.40;1.40;;;;;;;24.73;26.59;97914.16;108042;1253;61178;-66
2023/02/21 13:03:23;;;;;;;4.50;1.30;;;;;;;25.13;26.12;97918.14;108146;1253;72988;-66
2023/02/21 13:05:54;;;;;;;4.30;1.40;;;;;;;25.45;25.51;97920.11;108044;1252;71106;-67
2023/02/21 13:08:32;;;;;;;9.20;1.60;;;;;;;25.21;25.46;97916.92;108269;1252;72871;-67
2023/02/21 13:11:15;;;;;;;2.80;1.40;;;;;;;25.22;25.30;97915.66;108063;1253;60382;-66
2023/02/21 13:13:44;;;;;;;3.80;1.40;;;;;;;25.30;25.00;97923.38;108198;1252;59480;-67
2023/02/21 13:16:12;;;;;;;4.70;1.40;;;;;;;25.37;24.91;97922.36;108165;1253;71787;-68
2023/02/21 13:18:45;;;;;;;6.40;1.40;;;;;;;23.54;26.35;97920.73;108020;1253;70638;-66
2023/02/21 13:21:23;;;;;;;4.50;1.50;;;;;;;22.78;27.02;97923.10;108308;1253;72283;-67
2023/02/21 13:24:29;;;;;;;5.40;1.60;;;;;;;22.55;27.46;97925.66;108226;1252;60454;-66
2023/02/21 13:27:04;;;;;;;5.10;1.60;;;;;;;22.43;27.57;97933.08;108193;1253;60002;-67
2023/02/21 13:29:34;;;;;;;5.00;1.60;;;;;;;22.98;27.22;97938.08;108324;1253;74053;-65
2023/02/21 13:32:10;;;;;;;5.30;1.50;;;;;;;22.95;27.40;97940.53;108284;1253;70191;-68
2023/02/21 13:34:40;;;;;;;7.50;1.80;;;;;;;23.15;27.26;97950.92;108188;1253;73168;-67
2023/02/21 13:37:29;;;;;;;6.80;2.00;;;;;;;23.07;27.35;97949.47;108255;1252;61979;-67
2023/02/21 13:40:21;;;;;;;3.00;1.20;;;;;;;23.14;26.93;97959.60;108030;1253;60083;-67
2023/02/21 13:43:13;;;;;;;3.50;1.30;;;;;;;22.69;27.55;97969.92;108232;1252;72363;-68
2023/02/21 13:45:41;;;;;;;3.80;1.20;;;;;;;22.45;28.64;97982.39;108095;1252;69662;-67
2023/02/21 13:48:17;;;;;;;3.30;1.30;;;;;;;22.28;29.43;97970.92;108242;1253;73651;-67
2023/02/21 13:50:50;;;;;;;6.10;1.10;;;;;;;22.95;29.11;97979.80;108210;1254;62327;-67
2023/02/21 13:53:22;;;;;;;5.90;1.10;;;;;;;23.04;29.01;97994.54;108228;1253;60204;-67
2023/02/21 13:56:11;;;;;;;2.70;1.20;;;;;;;21.69;31.06;98008.30;108034;1252;72050;-68
2023/02/21 13:58:43;;;;;;;4.50;1.10;;;;;;;21.18;31.91;98011.98;108258;1252;70359;-67
2023/02/21 14:01:18;;;;;;;3.20;1.10;;;;;;;21.93;30.87;98014.09;108193;1252;72723;-68
2023/02/21 14:03:46;;;;;;;2.10;0.80;;;;;;;22.24;30.85;98006.42;108269;1253;61929;-69
2023/02/21 14:06:28;;;;;;;2.50;0.80;;;;;;;22.35;30.43;98002.17;108280;1253;61030;-68
2023/02/21 14:09:00;;;;;;;1.80;0.80;;;;;;;21.87;31.31;98002.72;108136;1253;72752;-67
2023/02/21 14:11:37;;;;;;;5.30;1.40;;;;;;;21.97;31.77;98003.38;108073;1253;71278;-66
2023/02/21 14:14:23;;;;;;;2.20;0.80;;;;;;;22.12;31.39;97999.07;108042;1253;73968;-67